sensor_id;sensor_type;location;lat;lon;timestamp;pressure;altitude;pressure_sealevel;temperature;humidity
11643;BME280;5877;50.930;6.918;2022-12-18T00:02:46;102293.78;;;-5.61;73.77
11643;BME280;5877;50.930;6.918;2022-12-18T00:07:38;102268.94;;;-5.77;73.15
11643;BME280;5877;50.930;6.918;2022-12-18T00:12:31;102298.00;;;-5.60;73.31
11643;BME280;5877;50.930;6.918;2022-12-18T00:17:23;102258.56;;;-5.93;73.86
11643;BME280;5877;50.930;6.918;2022-12-18T00:22:15;102315.22;;;-5.63;73.67
11643;BME280;5877;50.930;6.918;2022-12-18T00:27:07;102311.19;;;-5.69;74.18
11643;BME280;5877;50.930;6.918;2022-12-18T00:31:58;102314.06;;;-5.76;74.39
11643;BME280;5877;50.930;6.918;2022-12-18T00:36:50;102320.72;;;-5.72;74.36
11643;BME280;5877;50.930;6.918;2022-12-18T00:41:42;102327.50;;;-5.71;74.48
11643;BME280;5877;50.930;6.918;2022-12-18T00:46:54;102271.72;;;-6.02;74.13
11643;BME280;5877;50.930;6.918;2022-12-18T00:51:47;102285.72;;;-5.91;73.94
11643;BME280;5877;50.930;6.918;2022-12-18T00:56:39;102252.56;;;-6.12;74.05
11643;BME280;5877;50.930;6.918;2022-12-18T01:01:40;102309.03;;;-5.78;74.77
11643;BME280;5877;50.930;6.918;2022-12-18T01:06:32;102295.66;;;-5.84;74.67
11643;BME280;5877;50.930;6.918;2022-12-18T01:11:24;102307.16;;;-5.74;74.12
11643;BME280;5877;50.930;6.918;2022-12-18T01:16:17;102211.31;;;-6.24;74.45
11643;BME280;5877;50.930;6.918;2022-12-18T01:21:11;102263.56;;;-5.90;73.58
11643;BME280;5877;50.930;6.918;2022-12-18T01:26:08;102313.09;;;-5.74;74.04
11643;BME280;5877;50.930;6.918;2022-12-18T01:31:14;102300.78;;;-5.84;74.11
11643;BME280;5877;50.930;6.918;2022-12-18T01:36:13;102312.72;;;-5.85;74.28
11643;BME280;5877;50.930;6.918;2022-12-18T01:41:05;102309.09;;;-5.79;74.48
11643;BME280;5877;50.930;6.918;2022-12-18T01:45:59;102282.09;;;-6.05;74.36
11643;BME280;5877;50.930;6.918;2022-12-18T01:50:51;102303.56;;;-5.89;74.60
11643;BME280;5877;50.930;6.918;2022-12-18T01:55:46;102292.34;;;-5.86;74.09
11643;BME280;5877;50.930;6.918;2022-12-18T02:00:38;102142.97;;;-6.79;74.00
11643;BME280;5877;50.930;6.918;2022-12-18T02:05:47;102291.66;;;-5.90;74.19
11643;BME280;5877;50.930;6.918;2022-12-18T02:11:07;102292.28;;;-5.85;74.18
11643;BME280;5877;50.930;6.918;2022-12-18T02:16:10;102295.72;;;-5.86;73.92
11643;BME280;5877;50.930;6.918;2022-12-18T02:31:04;102258.44;;;-6.31;74.24
11643;BME280;5877;50.930;6.918;2022-12-18T02:35:59;102255.50;;;-6.22;73.35
11643;BME280;5877;50.930;6.918;2022-12-18T02:40:53;102291.88;;;-5.76;73.65
11643;BME280;5877;50.930;6.918;2022-12-18T02:45:49;102292.91;;;-5.80;74.04
11643;BME280;5877;50.930;6.918;2022-12-18T02:50:51;102117.38;;;-6.78;73.02
11643;BME280;5877;50.930;6.918;2022-12-18T03:01:01;102288.38;;;-5.73;73.17
11643;BME280;5877;50.930;6.918;2022-12-18T03:06:26;102298.72;;;-5.76;72.99
11643;BME280;5877;50.930;6.918;2022-12-18T03:11:19;102297.19;;;-5.80;73.06
11643;BME280;5877;50.930;6.918;2022-12-18T03:16:33;102196.22;;;-6.50;73.09
11643;BME280;5877;50.930;6.918;2022-12-18T03:21:38;102235.25;;;-6.26;73.77
11643;BME280;5877;50.930;6.918;2022-12-18T03:26:31;102266.56;;;-6.01;73.64
11643;BME280;5877;50.930;6.918;2022-12-18T03:31:27;102260.28;;;-5.94;73.24
11643;BME280;5877;50.930;6.918;2022-12-18T03:36:22;102148.53;;;-6.49;73.21
11643;BME280;5877;50.930;6.918;2022-12-18T03:41:35;102264.56;;;-5.94;73.30
11643;BME280;5877;50.930;6.918;2022-12-18T03:52:11;102241.72;;;-6.17;73.41
11643;BME280;5877;50.930;6.918;2022-12-18T03:57:11;102190.09;;;-6.46;73.48
11643;BME280;5877;50.930;6.918;2022-12-18T04:02:06;102259.28;;;-6.10;73.58
11643;BME280;5877;50.930;6.918;2022-12-18T04:07:00;102259.78;;;-6.22;73.71
11643;BME280;5877;50.930;6.918;2022-12-18T04:11:52;102247.44;;;-6.33;74.62
11643;BME280;5877;50.930;6.918;2022-12-18T04:16:44;102241.75;;;-6.39;74.23
11643;BME280;5877;50.930;6.918;2022-12-18T04:21:39;102237.47;;;-6.39;74.80
11643;BME280;5877;50.930;6.918;2022-12-18T04:26:34;102203.91;;;-6.72;74.67
11643;BME280;5877;50.930;6.918;2022-12-18T04:31:45;102182.44;;;-6.88;74.64
11643;BME280;5877;50.930;6.918;2022-12-18T04:36:37;102247.53;;;-6.56;74.66
11643;BME280;5877;50.930;6.918;2022-12-18T04:41:29;102220.13;;;-6.73;75.36
11643;BME280;5877;50.930;6.918;2022-12-18T04:46:22;102212.00;;;-6.82;74.67
11643;BME280;5877;50.930;6.918;2022-12-18T04:51:13;102238.28;;;-6.59;75.04
11643;BME280;5877;50.930;6.918;2022-12-18T04:56:10;102186.25;;;-6.98;74.82
11643;BME280;5877;50.930;6.918;2022-12-18T05:01:03;102246.97;;;-6.63;75.04
11643;BME280;5877;50.930;6.918;2022-12-18T05:05:54;102242.81;;;-6.65;74.92
11643;BME280;5877;50.930;6.918;2022-12-18T05:10:46;102127.81;;;-7.26;74.99
11643;BME280;5877;50.930;6.918;2022-12-18T05:15:38;102152.56;;;-7.06;74.57
11643;BME280;5877;50.930;6.918;2022-12-18T05:20:30;102122.44;;;-7.18;74.82
11643;BME280;5877;50.930;6.918;2022-12-18T05:25:24;102162.16;;;-6.91;75.28
11643;BME280;5877;50.930;6.918;2022-12-18T05:30:16;102231.34;;;-6.55;74.94
11643;BME280;5877;50.930;6.918;2022-12-18T05:35:10;102238.75;;;-6.49;75.32
11643;BME280;5877;50.930;6.918;2022-12-18T05:40:03;102158.13;;;-6.97;74.70
11643;BME280;5877;50.930;6.918;2022-12-18T05:44:55;102249.53;;;-6.42;75.08
11643;BME280;5877;50.930;6.918;2022-12-18T05:49:47;102182.44;;;-6.88;74.83
11643;BME280;5877;50.930;6.918;2022-12-18T05:54:39;102263.16;;;-6.42;74.70
11643;BME280;5877;50.930;6.918;2022-12-18T05:59:31;102165.50;;;-7.11;75.11
11643;BME280;5877;50.930;6.918;2022-12-18T06:04:22;102149.94;;;-7.27;75.00
11643;BME280;5877;50.930;6.918;2022-12-18T06:09:14;102279.47;;;-6.46;75.25
11643;BME280;5877;50.930;6.918;2022-12-18T06:14:08;102278.59;;;-6.67;74.57
11643;BME280;5877;50.930;6.918;2022-12-18T06:19:03;102192.38;;;-7.24;75.20
11643;BME280;5877;50.930;6.918;2022-12-18T06:23:55;102233.72;;;-6.94;75.37
11643;BME280;5877;50.930;6.918;2022-12-18T06:28:47;102149.09;;;-7.49;75.51
11643;BME280;5877;50.930;6.918;2022-12-18T06:33:39;102288.81;;;-6.45;75.28
11643;BME280;5877;50.930;6.918;2022-12-18T06:38:34;102286.19;;;-6.43;75.24
11643;BME280;5877;50.930;6.918;2022-12-18T06:43:26;102281.78;;;-6.40;75.36
11643;BME280;5877;50.930;6.918;2022-12-18T06:48:19;102283.69;;;-6.45;75.49
11643;BME280;5877;50.930;6.918;2022-12-18T06:53:11;102253.66;;;-6.60;75.51
11643;BME280;5877;50.930;6.918;2022-12-18T06:58:03;102272.41;;;-6.39;74.94
11643;BME280;5877;50.930;6.918;2022-12-18T07:02:55;102230.16;;;-6.68;74.82
11643;BME280;5877;50.930;6.918;2022-12-18T07:07:47;102256.25;;;-6.40;75.38
11643;BME280;5877;50.930;6.918;2022-12-18T07:12:39;102264.81;;;-6.41;75.05
11643;BME280;5877;50.930;6.918;2022-12-18T07:17:31;102211.78;;;-6.56;74.73
11643;BME280;5877;50.930;6.918;2022-12-18T07:22:25;102157.63;;;-6.84;74.76
11643;BME280;5877;50.930;6.918;2022-12-18T07:27:16;102272.75;;;-6.27;74.90
11643;BME280;5877;50.930;6.918;2022-12-18T07:32:08;102150.75;;;-6.82;74.54
11643;BME280;5877;50.930;6.918;2022-12-18T07:37:00;102245.84;;;-6.15;74.54
11643;BME280;5877;50.930;6.918;2022-12-18T07:41:52;102255.31;;;-6.17;74.23
11643;BME280;5877;50.930;6.918;2022-12-18T07:47:04;102261.13;;;-6.13;74.54
11643;BME280;5877;50.930;6.918;2022-12-18T07:52:02;102271.09;;;-6.07;74.11
11643;BME280;5877;50.930;6.918;2022-12-18T07:56:54;102258.06;;;-6.01;74.63
11643;BME280;5877;50.930;6.918;2022-12-18T08:01:45;102045.97;;;-7.20;74.11
11643;BME280;5877;50.930;6.918;2022-12-18T08:06:37;102168.84;;;-6.26;73.45
11643;BME280;5877;50.930;6.918;2022-12-18T08:11:32;102125.31;;;-6.04;72.59
11643;BME280;5877;50.930;6.918;2022-12-18T08:16:24;102222.53;;;-4.95;71.04
11643;BME280;5877;50.930;6.918;2022-12-18T08:21:21;102114.69;;;-5.40;69.68
11643;BME280;5877;50.930;6.918;2022-12-18T08:26:14;101834.75;;;-6.74;68.75
11643;BME280;5877;50.930;6.918;2022-12-18T08:31:07;102201.63;;;-4.16;68.12
11643;BME280;5877;50.930;6.918;2022-12-18T08:35:59;102189.50;;;-4.30;68.50
11643;BME280;5877;50.930;6.918;2022-12-18T08:41:05;102052.97;;;-5.00;67.75
11643;BME280;5877;50.930;6.918;2022-12-18T08:45:57;102195.69;;;-4.17;68.26
11643;BME280;5877;50.930;6.918;2022-12-18T08:51:00;102171.50;;;-4.29;67.88
11643;BME280;5877;50.930;6.918;2022-12-18T08:55:53;102082.09;;;-4.68;67.36
11643;BME280;5877;50.930;6.918;2022-12-18T09:00:44;102194.31;;;-4.07;67.57
11643;BME280;5877;50.930;6.918;2022-12-18T09:05:36;102166.69;;;-4.02;67.59
11643;BME280;5877;50.930;6.918;2022-12-18T09:10:28;102180.63;;;-3.90;67.75
11643;BME280;5877;50.930;6.918;2022-12-18T09:15:19;102111.97;;;-4.34;67.79
11643;BME280;5877;50.930;6.918;2022-12-18T09:20:12;101997.03;;;-5.07;67.92
11643;BME280;5877;50.930;6.918;2022-12-18T09:25:04;102073.41;;;-4.48;67.56
11643;BME280;5877;50.930;6.918;2022-12-18T09:29:59;102155.72;;;-3.88;67.57
11643;BME280;5877;50.930;6.918;2022-12-18T09:34:51;102158.16;;;-3.53;66.95
11643;BME280;5877;50.930;6.918;2022-12-18T09:39:42;102105.75;;;-3.81;66.85
11643;BME280;5877;50.930;6.918;2022-12-18T09:44:39;102156.25;;;-3.34;66.50
11643;BME280;5877;50.930;6.918;2022-12-18T09:49:54;102137.94;;;-3.28;66.43
11643;BME280;5877;50.930;6.918;2022-12-18T09:55:03;102134.34;;;-3.10;66.17
11643;BME280;5877;50.930;6.918;2022-12-18T10:00:03;102031.63;;;-3.70;65.51
11643;BME280;5877;50.930;6.918;2022-12-18T10:10:13;102127.19;;;-2.89;64.91
11643;BME280;5877;50.930;6.918;2022-12-18T10:15:19;102121.06;;;-2.72;64.93
11643;BME280;5877;50.930;6.918;2022-12-18T10:30:25;102102.66;;;-2.36;64.81
11643;BME280;5877;50.930;6.918;2022-12-18T10:35:23;101979.94;;;-3.04;63.73
11643;BME280;5877;50.930;6.918;2022-12-18T10:40:16;102103.66;;;-1.96;63.13
11643;BME280;5877;50.930;6.918;2022-12-18T10:45:15;102091.88;;;-1.86;63.05
11643;BME280;5877;50.930;6.918;2022-12-18T10:50:38;102028.34;;;-2.26;62.55
11643;BME280;5877;50.930;6.918;2022-12-18T10:55:52;102081.00;;;-1.77;62.90
11643;BME280;5877;50.930;6.918;2022-12-18T11:01:02;101940.06;;;-2.54;61.75
11643;BME280;5877;50.930;6.918;2022-12-18T11:06:14;102076.09;;;-1.67;61.68
11643;BME280;5877;50.930;6.918;2022-12-18T11:11:20;102018.66;;;-1.94;61.55
11643;BME280;5877;50.930;6.918;2022-12-18T11:16:19;102042.97;;;-1.86;61.86
11643;BME280;5877;50.930;6.918;2022-12-18T11:21:11;102078.34;;;-1.48;61.82
11643;BME280;5877;50.930;6.918;2022-12-18T11:26:05;102043.03;;;-1.73;61.50
11643;BME280;5877;50.930;6.918;2022-12-18T11:31:26;102068.19;;;-1.64;61.72
11643;BME280;5877;50.930;6.918;2022-12-18T11:36:20;101992.53;;;-2.15;61.36
11643;BME280;5877;50.930;6.918;2022-12-18T11:41:36;101940.22;;;-2.43;61.70
11643;BME280;5877;50.930;6.918;2022-12-18T11:52:30;101994.72;;;-2.09;61.85
11643;BME280;5877;50.930;6.918;2022-12-18T12:07:43;102007.03;;;-1.60;61.53
11643;BME280;5877;50.930;6.918;2022-12-18T12:23:41;101987.91;;;-1.56;61.92
11643;BME280;5877;50.930;6.918;2022-12-18T12:34:06;101968.50;;;-1.75;62.40
11643;BME280;5877;50.930;6.918;2022-12-18T12:39:05;101980.06;;;-1.68;62.60
11643;BME280;5877;50.930;6.918;2022-12-18T12:44:03;101857.72;;;-2.52;62.28
11643;BME280;5877;50.930;6.918;2022-12-18T12:49:02;101991.41;;;-1.57;62.46
11643;BME280;5877;50.930;6.918;2022-12-18T12:53:57;101880.81;;;-2.11;62.29
11643;BME280;5877;50.930;6.918;2022-12-18T13:04:30;101908.28;;;-2.12;61.97
11643;BME280;5877;50.930;6.918;2022-12-18T13:09:30;101787.09;;;-2.86;61.43
11643;BME280;5877;50.930;6.918;2022-12-18T13:14:31;101988.72;;;-1.56;61.54
11643;BME280;5877;50.930;6.918;2022-12-18T13:19:25;101929.78;;;-1.86;61.72
11643;BME280;5877;50.930;6.918;2022-12-18T13:24:25;101879.25;;;-2.14;61.88
11643;BME280;5877;50.930;6.918;2022-12-18T13:29:44;101982.38;;;-1.50;61.71
11643;BME280;5877;50.930;6.918;2022-12-18T13:34:38;101878.28;;;-1.99;62.12
11643;BME280;5877;50.930;6.918;2022-12-18T13:39:33;101908.22;;;-1.98;62.18
11643;BME280;5877;50.930;6.918;2022-12-18T13:44:41;101714.25;;;-3.12;61.72
11643;BME280;5877;50.930;6.918;2022-12-18T13:49:41;101965.03;;;-1.61;62.13
11643;BME280;5877;50.930;6.918;2022-12-18T23:24:58;101690.66;;;-1.27;79.78
11643;BME280;5877;50.930;6.918;2022-12-18T23:29:50;101683.44;;;-1.22;80.64
11643;BME280;5877;50.930;6.918;2022-12-18T23:34:45;101674.66;;;-1.19;80.37
11643;BME280;5877;50.930;6.918;2022-12-18T23:39:37;101685.09;;;-1.21;80.02
11643;BME280;5877;50.930;6.918;2022-12-18T23:44:29;101676.22;;;-1.17;80.94
11643;BME280;5877;50.930;6.918;2022-12-18T23:49:21;101601.78;;;-1.56;80.53
11643;BME280;5877;50.930;6.918;2022-12-18T23:54:13;101649.28;;;-1.13;80.59
11643;BME280;5877;50.930;6.918;2022-12-18T23:59:05;101654.81;;;-1.06;81.01
